Terminal Aerodrome Forecast
Issued by NWS Springfield, MO

Home | Current Version | Previous Version | Text Only | Print | Product List | Glossary On
Versions: 1 2 3 4 5 6 7 8 9 10 11 12 13 14 15
000
FTUS43 KSGF 241700
TAFSGF
TAF
KSGF 241721Z 2418/2518 25013KT P6SM SKC
     FM242300 25006KT P6SM SKC
     FM250600 VRB04KT 6SM BR SKC
      TEMPO 2510/2514 4SM BR
     FM251600 16006KT P6SM SCT015=

USA.gov is the U.S. government's official web portal to all federal, state and local government web resources and services.